Time;durP1;ratioP1;P1;durP2;ratioP2;P2;SDS_P1;SDS_P2;PMS_P1;PMS_P2;Temp;Humidity;BMP_temperature;BMP_pressure;BME280_temperature;BME280_humidity;BME280_pressure;Samples;Min_cycle;Max_cycle;Signal;HPM_P1;HPM_P2
2022/09/15 00:01:17;;;;;;;19.10;2.87;;;;;;;21.08;100.00;101172.41;6106352;23;20393;-88
2022/09/15 00:03:45;;;;;;;11.60;2.67;;;;;;;21.02;100.00;101169.53;6105681;23;20532;-87
2022/09/15 00:06:13;;;;;;;16.53;3.30;;;;;;;20.93;100.00;101153.53;6130730;23;20405;-88
2022/09/15 00:08:43;;;;;;;13.07;2.60;;;;;;;20.89;100.00;101141.25;6107387;23;20393;-88
2022/09/15 00:11:16;;;;;;;8.10;2.20;;;;;;;20.86;100.00;101148.16;6105833;23;20405;-88
2022/09/15 00:13:44;;;;;;;16.30;3.47;;;;;;;20.89;100.00;101158.75;6130774;23;20441;-88
2022/09/15 00:16:15;;;;;;;12.93;2.93;;;;;;;20.86;100.00;101162.03;6106668;23;20409;-88
2022/09/15 00:18:44;;;;;;;14.30;3.20;;;;;;;20.85;100.00;101167.84;6107271;23;20432;-88
2022/09/15 00:21:16;;;;;;;12.97;3.37;;;;;;;20.82;100.00;101160.00;6130569;23;20409;-87
2022/09/15 00:23:46;;;;;;;11.00;2.13;;;;;;;20.78;100.00;101164.41;6107065;23;20465;-88
2022/09/15 00:26:15;;;;;;;8.27;2.30;;;;;;;20.76;100.00;101161.03;6153917;23;21000;-88
2022/09/15 00:28:44;;;;;;;12.17;2.50;;;;;;;20.73;100.00;101158.75;6107167;23;20398;-88
2022/09/15 00:31:19;;;;;;;13.10;3.10;;;;;;;20.69;100.00;101156.47;6106094;23;20453;-87
2022/09/15 00:33:48;;;;;;;11.03;3.00;;;;;;;20.67;100.00;101167.00;6130965;23;20406;-88
2022/09/15 00:36:16;;;;;;;10.33;1.90;;;;;;;20.64;100.00;101149.97;6107069;23;20417;-88
2022/09/15 00:38:44;;;;;;;19.40;3.27;;;;;;;20.63;100.00;101154.69;6129786;23;20817;-87
2022/09/15 00:41:14;;;;;;;12.87;2.70;;;;;;;20.63;100.00;101154.69;6106789;23;20493;-87
2022/09/15 00:43:54;;;;;;;15.47;2.60;;;;;;;20.63;100.00;101149.13;6105538;23;20520;-87
2022/09/15 00:46:34;;;;;;;19.63;2.90;;;;;;;20.61;100.00;101159.66;6129932;23;20429;-87
2022/09/15 00:49:19;;;;;;;10.37;2.50;;;;;;;20.58;100.00;101151.84;6130373;23;20433;-88
2022/09/15 00:52:00;;;;;;;13.60;2.80;;;;;;;20.44;100.00;101139.34;6154112;23;20413;-88
2022/09/15 00:54:31;;;;;;;15.93;2.40;;;;;;;20.49;100.00;101147.78;6129769;23;20433;-88
2022/09/15 00:57:03;;;;;;;14.57;2.30;;;;;;;20.53;100.00;101159.22;6156255;23;20443;-87
2022/09/15 00:59:31;;;;;;;9.90;2.40;;;;;;;20.51;100.00;101140.03;6153929;23;20444;-87
2022/09/15 01:02:11;;;;;;;13.80;2.60;;;;;;;20.52;100.00;101149.22;6129756;23;20397;-87
2022/09/15 01:04:40;;;;;;;15.70;2.40;;;;;;;20.54;100.00;101149.81;6131873;23;20782;-88
2022/09/15 01:07:09;;;;;;;17.57;2.70;;;;;;;20.45;100.00;101129.91;6132003;23;20974;-88
2022/09/15 01:10:00;;;;;;;9.97;1.80;;;;;;;20.51;100.00;101145.59;6131983;23;20804;-88
2022/09/15 01:12:28;;;;;;;10.53;2.80;;;;;;;20.53;100.00;101143.41;6156056;23;20398;-88
2022/09/15 01:14:56;;;;;;;14.23;2.43;;;;;;;20.52;100.00;101141.72;6107849;23;20444;-88
2022/09/15 01:17:53;;;;;;;17.10;2.90;;;;;;;20.60;100.00;101149.63;6107704;23;20927;-88
2022/09/15 01:20:51;;;;;;;12.70;2.93;;;;;;;20.64;100.00;101150.81;6131851;23;20525;-88
2022/09/15 01:23:37;;;;;;;11.73;3.37;;;;;;;20.69;100.00;101147.28;6131312;23;20413;-87
2022/09/15 01:26:11;;;;;;;14.97;3.27;;;;;;;20.72;100.00;101146.78;6158010;23;20409;-87
2022/09/15 01:29:05;;;;;;;11.17;2.60;;;;;;;20.72;100.00;101134.84;6156702;23;20408;-87
2022/09/15 01:33:02;;;;;;;10.40;3.00;;;;;;;20.78;100.00;101142.19;6136361;23;20401;-88
2022/09/15 01:38:30;;;;;;;14.40;2.40;;;;;;;20.78;100.00;101128.28;6157825;23;20422;-87
2022/09/15 01:44:42;;;;;;;14.20;2.60;;;;;;;20.85;100.00;101140.91;6157498;23;20416;-88
2022/09/15 01:47:12;;;;;;;16.73;3.00;;;;;;;20.75;100.00;101120.44;6155957;23;20409;-88
2022/09/15 01:50:14;;;;;;;17.67;3.27;;;;;;;20.83;100.00;101136.69;6108150;23;20406;-89
2022/09/15 01:52:44;;;;;;;14.73;3.67;;;;;;;20.77;100.00;101138.56;6019637;23;20602;-87
2022/09/15 01:55:34;;;;;;;6.23;2.67;;;;;;;20.79;100.00;101141.06;6019368;23;20790;-88
2022/09/15 01:58:03;;;;;;;17.33;2.70;;;;;;;20.77;100.00;101132.16;6023869;23;20490;-88
2022/09/15 02:00:35;;;;;;;9.60;3.03;;;;;;;20.74;100.00;101136.28;6067389;23;20418;-88
2022/09/15 02:03:07;;;;;;;15.80;3.80;;;;;;;20.67;100.00;101122.53;6066750;23;20503;-89
2022/09/15 02:05:40;;;;;;;9.80;2.60;;;;;;;20.71;100.00;101141.50;6019952;23;20447;-88
2022/09/15 02:08:29;;;;;;;10.33;3.00;;;;;;;20.67;100.00;101133.66;6043913;23;20495;-89
2022/09/15 02:10:57;;;;;;;13.63;2.90;;;;;;;20.67;100.00;101142.00;6023931;23;20420;-89
2022/09/15 02:13:45;;;;;;;13.83;3.90;;;;;;;20.63;100.00;101140.81;6043245;23;20903;-88
2022/09/15 02:16:18;;;;;;;9.93;3.00;;;;;;;20.57;100.00;101138.19;6042825;23;20404;-88
2022/09/15 02:22:31;;;;;;;7.10;2.53;;;;;;;20.45;100.00;101129.06;6067174;23;20387;-89
2022/09/15 02:25:08;;;;;;;8.00;2.50;;;;;;;20.50;100.00;101138.34;6043584;23;20467;-88
2022/09/15 02:27:43;;;;;;;8.47;2.67;;;;;;;20.36;100.00;101125.84;6016530;23;20931;-88
2022/09/15 02:30:12;;;;;;;11.87;2.57;;;;;;;20.37;100.00;101129.50;6132651;23;20915;-89
2022/09/15 02:33:05;;;;;;;17.07;2.80;;;;;;;20.35;100.00;101149.16;6108054;23;20442;-89
2022/09/15 02:35:34;;;;;;;9.40;2.30;;;;;;;20.28;100.00;101138.19;6156008;23;20772;-89
2022/09/15 02:38:03;;;;;;;10.20;2.77;;;;;;;20.30;100.00;101149.03;6107846;23;20723;-89
2022/09/15 02:40:32;;;;;;;8.13;2.53;;;;;;;20.25;100.00;101141.44;6107498;23;20964;-88
2022/09/15 02:43:01;;;;;;;12.63;3.10;;;;;;;20.21;100.00;101142.19;6131894;23;20393;-88
2022/09/15 02:45:29;;;;;;;11.67;2.60;;;;;;;20.17;100.00;101144.63;6155422;23;20446;-88
2022/09/15 02:47:59;;;;;;;9.93;2.40;;;;;;;20.15;100.00;101149.59;6106793;23;20406;-89
2022/09/15 02:50:29;;;;;;;13.13;2.87;;;;;;;20.09;100.00;101145.03;6156908;23;20445;-89
2022/09/15 02:52:56;;;;;;;14.17;2.77;;;;;;;20.06;100.00;101141.88;6106686;23;20779;-89
2022/09/15 02:55:28;;;;;;;10.20;2.30;;;;;;;20.04;100.00;101146.84;6130967;23;20413;-88
2022/09/15 02:58:13;;;;;;;11.33;2.57;;;;;;;19.99;100.00;101142.06;6153198;23;20467;-88
2022/09/15 03:00:41;;;;;;;10.73;2.27;;;;;;;19.99;100.00;101144.84;6131024;23;20405;-88
2022/09/15 03:03:09;;;;;;;8.17;2.10;;;;;;;19.88;100.00;101129.88;6106966;23;20409;-88
2022/09/15 03:05:37;;;;;;;9.80;2.00;;;;;;;19.91;100.00;101145.19;6154365;23;20496;-89
2022/09/15 03:08:05;;;;;;;11.40;2.57;;;;;;;19.85;100.00;101144.25;6107210;23;20736;-89
2022/09/15 03:10:32;;;;;;;11.70;2.40;;;;;;;19.83;100.00;101140.88;6131052;23;20406;-89
2022/09/15 03:16:41;;;;;;;8.37;2.10;;;;;;;19.81;100.00;101150.56;6156711;23;20906;-88
2022/09/15 03:19:11;;;;;;;5.23;1.80;;;;;;;19.79;100.00;101150.78;6106449;23;20408;-88
2022/09/15 03:21:40;;;;;;;8.30;2.27;;;;;;;19.76;100.00;101151.28;6130438;23;20416;-89
2022/09/15 03:24:08;;;;;;;10.10;2.70;;;;;;;19.75;100.00;101145.97;6130459;23;20445;-89
2022/09/15 03:26:36;;;;;;;16.67;2.63;;;;;;;19.72;100.00;101150.06;6130059;23;20934;-88
2022/09/15 03:29:05;;;;;;;6.30;1.80;;;;;;;19.70;100.00;101143.94;6106499;23;20401;-88
2022/09/15 03:31:33;;;;;;;5.60;2.07;;;;;;;19.71;100.00;101151.16;6156318;23;20409;-88
2022/09/15 03:34:01;;;;;;;8.67;2.10;;;;;;;19.62;100.00;101142.38;6130074;23;20437;-89
2022/09/15 03:36:29;;;;;;;7.90;2.63;;;;;;;19.69;100.00;101147.78;6155260;23;20410;-88
2022/09/15 03:38:58;;;;;;;11.10;2.40;;;;;;;19.69;100.00;101152.47;6130687;23;20409;-88
2022/09/15 03:41:28;;;;;;;5.10;2.03;;;;;;;19.71;100.00;101158.63;6131012;23;20404;-89
2022/09/15 03:43:56;;;;;;;10.50;2.23;;;;;;;19.73;100.00;101151.75;6130846;23;20413;-88
2022/09/15 03:46:24;;;;;;;7.83;2.43;;;;;;;19.72;100.00;101152.84;6106043;23;20405;-89
2022/09/15 03:48:54;;;;;;;11.17;2.00;;;;;;;19.67;100.00;101152.72;6106444;23;20704;-88
2022/09/15 03:51:23;;;;;;;12.10;2.60;;;;;;;19.66;100.00;101151.03;6130148;23;20410;-88
2022/09/15 03:53:53;;;;;;;8.53;2.00;;;;;;;19.71;100.00;101161.41;6153720;23;20432;-89
2022/09/15 03:56:21;;;;;;;10.00;2.00;;;;;;;19.74;100.00;101166.47;6153836;23;20440;-88
2022/09/15 03:58:49;;;;;;;8.27;1.90;;;;;;;19.69;100.00;101150.56;6130372;23;20974;-87
2022/09/15 04:01:18;;;;;;;16.83;2.80;;;;;;;19.71;100.00;101151.16;6106143;23;20406;-88
2022/09/15 04:03:48;;;;;;;12.43;2.60;;;;;;;19.72;100.00;101155.63;6106793;23;20409;-88
2022/09/15 04:06:19;;;;;;;10.50;2.73;;;;;;;19.72;100.00;101150.06;6154931;23;20745;-88
2022/09/15 04:08:50;;;;;;;9.07;2.27;;;;;;;19.75;100.00;101152.38;6106226;23;20489;-88
2022/09/15 04:11:19;;;;;;;13.60;2.90;;;;;;;19.73;100.00;101143.44;6107101;23;20431;-88
2022/09/15 04:13:49;;;;;;;6.80;2.30;;;;;;;19.79;100.00;101152.72;6130502;23;20402;-88
2022/09/15 04:16:19;;;;;;;9.63;2.57;;;;;;;19.79;100.00;101153.56;6106529;23;20404;-88
2022/09/15 04:18:47;;;;;;;12.27;2.57;;;;;;;19.81;100.00;101156.09;6130996;23;20421;-89
2022/09/15 04:21:16;;;;;;;9.57;2.23;;;;;;;19.83;100.00;101154.75;6106685;23;20472;-88
2022/09/15 04:23:44;;;;;;;14.77;2.80;;;;;;;19.87;100.00;101155.09;6106659;23;20738;-88
2022/09/15 04:26:20;;;;;;;12.17;2.90;;;;;;;19.88;100.00;101163.19;6105796;23;20503;-88
2022/09/15 04:28:48;;;;;;;12.50;2.77;;;;;;;19.90;100.00;101158.22;6106905;23;20435;-88
2022/09/15 04:31:16;;;;;;;20.53;3.40;;;;;;;19.92;100.00;101155.22;6155046;23;20415;-89
2022/09/15 04:33:44;;;;;;;18.63;3.40;;;;;;;19.93;100.00;101165.22;6105974;23;20405;-88
2022/09/15 04:36:35;;;;;;;10.97;3.70;;;;;;;19.92;100.00;101156.06;6106017;23;20444;-88
2022/09/15 04:39:05;;;;;;;23.03;5.20;;;;;;;19.92;100.00;101153.28;6134184;23;20484;-89
2022/09/15 04:41:33;;;;;;;29.27;7.10;;;;;;;19.95;100.00;101152.78;6131067;23;20440;-88
2022/09/15 04:44:03;;;;;;;28.23;7.67;;;;;;;19.99;100.00;101162.31;6154725;23;20461;-88
2022/09/15 04:46:31;;;;;;;34.37;7.67;;;;;;;20.01;100.00;101167.63;6154862;23;20405;-88
2022/09/15 04:48:59;;;;;;;17.77;6.07;;;;;;;20.02;100.00;101174.84;6105520;23;20715;-89
2022/09/15 04:51:27;;;;;;;25.67;6.70;;;;;;;19.98;100.00;101152.31;6106440;23;20440;-88
2022/09/15 04:53:55;;;;;;;28.33;6.77;;;;;;;20.05;100.00;101166.03;6129904;23;20496;-89
2022/09/15 04:56:24;;;;;;;16.40;5.30;;;;;;;20.10;100.00;101165.28;6130356;23;20424;-89
2022/09/15 04:58:54;;;;;;;26.70;5.83;;;;;;;20.11;100.00;101170.59;6130856;23;20472;-89
2022/09/15 05:16:30;;;;;;;9.87;3.63;;;;;;;20.26;100.00;101156.16;6155906;23;20887;-88
2022/09/15 05:18:59;;;;;;;10.27;3.23;;;;;;;20.25;100.00;101157.25;6130218;23;20937;-88
2022/09/15 05:21:27;;;;;;;7.43;2.97;;;;;;;20.29;100.00;101164.00;6105980;23;20406;-88
2022/09/15 05:23:55;;;;;;;8.27;2.80;;;;;;;20.21;100.00;101156.06;6105632;23;20409;-88
2022/09/15 05:26:27;;;;;;;8.40;2.50;;;;;;;20.19;100.00;101148.00;6129720;23;20453;-88
2022/09/15 05:28:56;;;;;;;13.60;2.60;;;;;;;20.19;100.00;101141.63;6106677;23;20398;-88
2022/09/15 05:31:26;;;;;;;6.70;2.47;;;;;;;20.22;100.00;101160.53;6105920;23;20746;-88
2022/09/15 05:34:03;;;;;;;6.77;3.00;;;;;;;20.21;100.00;101156.91;6106667;23;20424;-88
2022/09/15 05:36:32;;;;;;;7.13;2.17;;;;;;;20.25;100.00;101166.44;6129748;23;20512;-88
2022/09/15 05:39:00;;;;;;;8.53;2.73;;;;;;;20.21;100.00;101167.16;6105971;23;20427;-88
2022/09/15 05:41:28;;;;;;;12.37;2.87;;;;;;;20.17;100.00;101166.00;6106278;23;20452;-88
2022/09/15 05:43:57;;;;;;;5.63;2.40;;;;;;;20.19;100.00;101169.38;6105790;23;20472;-88
2022/09/15 05:46:24;;;;;;;6.87;2.00;;;;;;;20.17;100.00;101172.41;6129534;23;20449;-89
2022/09/15 05:48:54;;;;;;;5.13;1.80;;;;;;;20.19;100.00;101175.78;6106012;23;20500;-88
2022/09/15 05:51:22;;;;;;;12.97;2.60;;;;;;;20.17;100.00;101182.66;6131998;23;20390;-89
2022/09/15 05:53:49;;;;;;;8.77;2.40;;;;;;;20.19;100.00;101189.66;6131344;23;20496;-87
2022/09/15 06:03:52;;;;;;;7.90;3.33;;;;;;;20.10;100.00;101179.16;6157391;23;20442;-88
2022/09/15 06:06:21;;;;;;;7.70;3.80;;;;;;;20.14;100.00;101183.13;6107796;23;20499;-89
2022/09/15 06:08:58;;;;;;;7.27;2.27;;;;;;;20.18;100.00;101187.13;6131470;23;20416;-88
2022/09/15 06:11:33;;;;;;;9.23;2.07;;;;;;;20.10;100.00;101171.69;6110866;23;20432;-88
2022/09/15 06:14:02;;;;;;;5.27;2.73;;;;;;;20.10;100.00;101176.38;6107759;23;20493;-88
2022/09/15 06:16:32;;;;;;;6.10;2.27;;;;;;;20.13;100.00;101187.00;6105984;23;20402;-88
2022/09/15 06:19:04;;;;;;;7.00;2.30;;;;;;;20.11;100.00;101187.25;6132072;23;20401;-88
2022/09/15 06:21:32;;;;;;;5.90;2.03;;;;;;;20.27;100.00;101210.59;6131776;23;20424;-88
2022/09/15 06:24:05;;;;;;;6.13;1.67;;;;;;;20.24;100.00;101211.09;6108004;23;20394;-89
2022/09/15 06:26:33;;;;;;;10.30;2.40;;;;;;;20.19;100.00;101197.13;6108885;23;20477;-89
2022/09/15 06:29:02;;;;;;;9.10;2.30;;;;;;;20.26;100.00;101217.25;6107424;23;20412;-88
2022/09/15 06:31:31;;;;;;;4.53;1.40;;;;;;;20.25;100.00;101218.34;6107047;23;20413;-88
2022/09/15 06:34:02;;;;;;;3.80;1.43;;;;;;;20.16;100.00;101205.94;6155062;23;20892;-89
2022/09/15 06:36:30;;;;;;;6.33;1.83;;;;;;;20.26;100.00;101228.34;6131290;23;20417;-88
2022/09/15 06:38:58;;;;;;;5.57;1.67;;;;;;;20.24;100.00;101224.97;6107558;23;20456;-88
2022/09/15 06:41:29;;;;;;;6.10;1.60;;;;;;;20.14;100.00;101210.91;6107978;23;20413;-88
2022/09/15 06:44:20;;;;;;;3.97;1.37;;;;;;;20.27;100.00;101227.25;6135363;23;20472;-88
2022/09/15 06:46:51;;;;;;;6.40;1.70;;;;;;;20.21;100.00;101204.09;6131418;23;20449;-88
2022/09/15 06:49:20;;;;;;;9.30;1.80;;;;;;;20.29;100.00;101219.53;6106642;23;20495;-89
2022/09/15 06:51:48;;;;;;;12.27;2.47;;;;;;;20.29;100.00;101220.38;6107238;23;20417;-88
2022/09/15 06:54:16;;;;;;;5.90;2.03;;;;;;;20.27;100.00;101216.16;6130911;23;20804;-88
2022/09/15 07:00:24;;;;;;;7.10;2.30;;;;;;;20.27;100.00;101241.16;6156747;23;20412;-88
2022/09/15 07:02:52;;;;;;;8.67;2.30;;;;;;;20.26;100.00;101228.34;6130931;23;20492;-87
2022/09/15 07:05:20;;;;;;;5.87;2.07;;;;;;;20.21;100.00;101226.31;6130326;23;20469;-88
2022/09/15 07:07:48;;;;;;;7.73;2.63;;;;;;;20.24;100.00;101238.84;6107780;23;20410;-88
2022/09/15 07:10:18;;;;;;;6.83;2.13;;;;;;;20.31;100.00;101245.13;6106896;23;20926;-92
2022/09/15 07:12:49;;;;;;;5.43;2.50;;;;;;;20.36;100.00;101245.22;6132755;23;20409;-90
2022/09/15 07:15:18;;;;;;;4.60;2.57;;;;;;;20.34;100.00;101250.19;6108238;23;20865;-90
2022/09/15 07:17:52;;;;;;;7.40;2.80;;;;;;;20.34;100.00;101239.94;6109398;23;20441;-90
2022/09/15 07:20:28;;;;;;;11.57;2.90;;;;;;;20.47;100.00;101255.47;6107494;23;20744;-91
2022/09/15 07:23:09;;;;;;;7.73;2.67;;;;;;;20.53;100.00;101260.06;6131262;23;20912;-90
2022/09/15 07:25:37;;;;;;;8.83;2.50;;;;;;;20.52;100.00;101251.97;6131608;23;20533;-89
2022/09/15 07:28:06;;;;;;;16.23;2.97;;;;;;;20.57;100.00;101250.13;6108355;23;20386;-91
2022/09/15 07:30:33;;;;;;;6.63;2.27;;;;;;;20.55;100.00;101241.22;6105130;23;20515;-90
2022/09/15 07:33:05;;;;;;;10.03;2.83;;;;;;;20.68;100.00;101267.84;6107189;23;20414;-91
2022/09/15 07:35:33;;;;;;;6.90;2.30;;;;;;;20.66;100.00;101253.34;6130868;23;20536;-90
2022/09/15 07:38:01;;;;;;;6.07;1.97;;;;;;;20.67;100.00;101242.00;6131864;23;20453;-90
2022/09/15 07:40:31;;;;;;;7.43;1.80;;;;;;;20.89;100.00;101258.81;6108177;23;20461;-90
2022/09/15 07:42:58;;;;;;;9.10;1.60;;;;;;;21.07;100.00;101254.09;6130833;23;20460;-90
2022/09/15 07:45:31;;;;;;;4.50;1.77;;;;;;;21.13;100.00;101248.41;6107198;23;20510;-91
2022/09/15 07:47:58;;;;;;;12.57;2.00;;;;;;;21.25;100.00;101238.06;6131563;23;20484;-91
2022/09/15 07:50:26;;;;;;;8.00;2.53;;;;;;;21.41;100.00;101255.84;6107061;23;20464;-91
2022/09/15 07:55:54;;;;;;;3.60;1.53;;;;;;;21.56;100.00;101247.72;6155777;23;20479;-91
2022/09/15 07:58:22;;;;;;;13.30;2.40;;;;;;;21.68;100.00;101258.78;6107219;23;20425;-91
2022/09/15 08:00:53;;;;;;;10.57;2.43;;;;;;;21.70;100.00;101264.94;6131738;23;20405;-90
2022/09/15 08:03:22;;;;;;;8.97;2.30;;;;;;;21.66;100.00;101247.06;6107658;23;20877;-90
2022/09/15 08:05:55;;;;;;;15.80;2.87;;;;;;;21.70;100.00;101256.59;6106836;23;20441;-90
2022/09/15 08:08:28;;;;;;;7.10;2.47;;;;;;;21.75;100.00;101261.38;6132052;23;20382;-90
2022/09/15 08:10:57;;;;;;;10.00;2.37;;;;;;;21.81;100.00;101266.75;6107569;23;20781;-91
2022/09/15 08:13:29;;;;;;;12.37;3.10;;;;;;;21.77;100.00;101248.88;6108358;23;20417;-90
2022/09/15 08:16:03;;;;;;;10.17;2.70;;;;;;;21.89;100.00;101251.56;6107020;23;20416;-91
2022/09/15 08:18:35;;;;;;;10.50;3.00;;;;;;;22.08;100.00;101257.72;6154638;23;20397;-88
2022/09/15 09:00:36;;;;;;;14.17;2.70;;;;;;;22.82;100.00;101272.88;5950156;22;8590303;-92
2022/09/15 09:06:58;;;;;;;9.20;2.90;;;;;;;23.15;100.00;101282.13;6255444;23;20445;-91
2022/09/15 09:09:53;;;;;;;17.40;3.07;;;;;;;23.31;100.00;101286.72;6253059;23;20445;-91
2022/09/15 09:13:14;;;;;;;10.80;2.80;;;;;;;23.50;100.00;101292.75;6244941;23;20402;-91
2022/09/15 09:16:51;;;;;;;7.50;2.40;;;;;;;23.61;100.00;101286.19;6173529;23;20410;-92
2022/09/15 09:19:34;;;;;;;11.23;3.10;;;;;;;23.73;100.00;101284.03;6022335;23;20447;-92
2022/09/15 09:22:27;;;;;;;10.23;3.50;;;;;;;23.79;100.00;101287.72;6022364;23;20471;-92
2022/09/15 09:25:05;;;;;;;9.63;2.67;;;;;;;23.83;100.00;101289.72;6022965;23;20504;-92
2022/09/15 09:27:49;;;;;;;15.00;3.10;;;;;;;23.83;100.00;101281.34;6023899;23;20439;-92
2022/09/15 09:30:23;;;;;;;11.03;2.47;;;;;;;23.97;100.00;101296.50;5999092;23;20416;-92
2022/09/15 09:33:22;;;;;;;9.23;2.83;;;;;;;24.08;100.00;101303.81;5983614;23;20420;-93
2022/09/15 09:35:58;;;;;;;14.07;3.60;;;;;;;24.04;100.00;101305.50;6045820;23;20413;-94
2022/09/15 09:38:43;;;;;;;9.97;2.80;;;;;;;24.11;100.00;101308.88;5969534;23;20456;-93
2022/09/15 09:41:27;;;;;;;11.10;2.53;;;;;;;24.14;100.00;101312.22;5998330;23;20401;-93
2022/09/15 09:44:06;;;;;;;11.00;3.30;;;;;;;24.08;100.00;101306.59;5971659;23;20495;-93
2022/09/15 09:46:36;;;;;;;15.47;2.97;;;;;;;24.10;100.00;101312.75;5993988;23;20492;-92
2022/09/15 09:49:27;;;;;;;13.40;3.13;;;;;;;23.96;100.00;101300.41;5970423;23;20484;-94
2022/09/15 09:52:04;;;;;;;11.93;3.83;;;;;;;23.95;100.00;101314.63;6027601;23;20412;-93
2022/09/15 09:54:36;;;;;;;10.77;2.57;;;;;;;23.86;100.00;101325.44;6096673;23;20417;-93
2022/09/15 09:57:28;;;;;;;15.47;3.40;;;;;;;23.76;100.00;101325.38;6222191;23;20387;-92
2022/09/15 09:59:55;;;;;;;13.53;3.53;;;;;;;23.57;100.00;101333.31;6220815;22;20480;-91
2022/09/15 10:02:26;;;;;;;10.90;3.43;;;;;;;23.47;100.00;101340.75;6200238;22;20953;-92
2022/09/15 10:05:17;;;;;;;24.63;4.53;;;;;;;23.31;100.00;101336.94;6200988;22;20967;-91
2022/09/15 10:07:47;;;;;;;15.60;3.60;;;;;;;23.13;100.00;101327.00;6227523;22;20440;-92
2022/09/15 10:10:31;;;;;;;9.20;2.43;;;;;;;23.03;100.00;101329.69;6202167;22;20410;-91
2022/09/15 10:13:03;;;;;;;10.77;3.23;;;;;;;22.96;100.00;101343.00;6203269;22;20977;-92
2022/09/15 10:15:41;;;;;;;12.70;3.60;;;;;;;22.87;100.00;101336.22;6226977;22;20409;-93
2022/09/15 10:18:31;;;;;;;21.27;3.40;;;;;;;22.84;100.00;101339.50;6252206;22;20389;-93
2022/09/15 10:21:06;;;;;;;9.43;3.00;;;;;;;22.79;100.00;101333.88;6278408;22;20409;-92
2022/09/15 10:23:38;;;;;;;15.40;3.00;;;;;;;22.94;100.00;101340.47;6226698;22;20409;-93
2022/09/15 10:26:20;;;;;;;6.30;2.80;;;;;;;23.07;100.00;101342.00;6251797;22;20521;-94
2022/09/15 10:29:15;;;;;;;7.47;3.03;;;;;;;23.32;100.00;101333.88;6227379;22;20406;-93
2022/09/15 10:31:43;;;;;;;8.47;3.03;;;;;;;23.61;100.00;101336.44;6225945;22;20904;-93
2022/09/15 10:34:27;;;;;;;14.07;3.90;;;;;;;23.88;100.00;101326.03;6227557;22;20416;-93
2022/09/15 10:37:35;;;;;;;9.07;3.00;;;;;;;24.22;100.00;101336.88;6202844;22;20414;-93
2022/09/15 10:40:26;;;;;;;9.97;2.80;;;;;;;24.60;100.00;101333.75;6208711;22;20731;-93
2022/09/15 10:43:20;;;;;;;11.57;3.40;;;;;;;24.86;100.00;101336.63;6256308;22;20900;-93
2022/09/15 10:46:03;;;;;;;6.10;2.37;;;;;;;25.01;100.00;101333.94;6278272;22;20438;-93
2022/09/15 10:48:42;;;;;;;11.23;2.60;;;;;;;25.22;100.00;101334.78;6228686;22;20382;-94
2022/09/15 10:51:32;;;;;;;7.80;2.40;;;;;;;25.25;100.00;101321.09;6226741;22;20410;-93
2022/09/15 10:54:06;;;;;;;14.10;2.87;;;;;;;25.46;100.00;101336.78;6205734;22;20405;-93
2022/09/15 10:56:41;;;;;;;13.70;2.37;;;;;;;25.62;100.00;101334.00;6278371;22;20459;-94
2022/09/15 10:59:31;;;;;;;7.50;1.93;;;;;;;25.74;100.00;101334.59;6202128;22;20460;-94
2022/09/15 20:40:16;;;;;;;10.10;2.00;;;;;;;22.14;100.00;101345.78;6221533;22;20422;31
2022/09/15 20:42:49;;;;;;;14.97;2.53;;;;;;;22.02;100.00;101318.03;6130172;23;20455;-91
2022/09/15 20:45:16;;;;;;;12.60;2.07;;;;;;;22.01;100.00;101325.56;6077480;23;20414;-91
2022/09/15 20:47:44;;;;;;;13.47;2.33;;;;;;;22.05;100.00;101337.88;6078402;23;20398;-90
2022/09/15 20:50:15;;;;;;;6.83;1.67;;;;;;;22.00;100.00;101326.66;6077718;23;20441;-91
2022/09/15 20:52:44;;;;;;;7.80;1.97;;;;;;;21.96;100.00;101328.22;6078595;23;20391;-90
2022/09/15 20:55:13;;;;;;;6.83;2.07;;;;;;;21.97;100.00;101338.25;6077178;23;20414;-90
2022/09/15 20:57:41;;;;;;;10.83;2.07;;;;;;;21.88;100.00;101322.25;6077693;23;20415;-91
2022/09/15 21:00:10;;;;;;;8.40;2.20;;;;;;;21.92;100.00;101332.63;6054763;23;20375;-91
2022/09/15 21:02:39;;;;;;;8.40;1.87;;;;;;;21.93;100.00;101342.69;6078487;23;20382;-91
2022/09/15 21:05:07;;;;;;;5.07;2.17;;;;;;;21.90;100.00;101351.53;6078118;23;20485;-90
2022/09/15 21:07:43;;;;;;;6.50;2.03;;;;;;;21.83;100.00;101338.88;6078241;23;20496;-91
2022/09/15 21:10:11;;;;;;;9.00;1.30;;;;;;;21.78;100.00;101336.00;6101808;23;20378;-91
2022/09/15 21:12:39;;;;;;;11.80;3.63;;;;;;;21.83;100.00;101348.06;6077749;23;20399;-89
2022/09/15 21:15:08;;;;;;;11.13;2.13;;;;;;;21.85;100.00;101356.16;6077697;23;20501;-91
2022/09/15 21:17:38;;;;;;;9.13;2.30;;;;;;;21.74;100.00;101348.75;6077531;23;20492;-90
2022/09/15 21:20:12;;;;;;;11.40;2.13;;;;;;;21.68;100.00;101334.75;6101306;23;20433;-90
2022/09/15 21:22:40;;;;;;;12.57;1.90;;;;;;;21.70;100.00;101349.25;6101220;23;20449;-90
2022/09/15 21:25:08;;;;;;;9.07;1.67;;;;;;;21.68;100.00;101350.59;6077417;23;20726;-91
2022/09/15 21:27:37;;;;;;;8.27;2.40;;;;;;;21.64;100.00;101349.41;6077225;23;20456;-90
2022/09/15 21:30:06;;;;;;;6.60;1.80;;;;;;;21.60;100.00;101351.84;6077428;23;20414;-91
2022/09/15 21:32:34;;;;;;;12.80;2.50;;;;;;;21.66;100.00;101366.69;6054075;23;20415;-90
2022/09/15 21:35:04;;;;;;;11.60;2.10;;;;;;;21.63;100.00;101359.69;6079471;23;20414;-91
2022/09/15 21:37:33;;;;;;;10.93;2.40;;;;;;;21.63;100.00;101369.97;6079697;23;20854;-91
2022/09/15 21:40:03;;;;;;;13.87;2.07;;;;;;;21.56;100.00;101358.16;6079589;23;20426;-91
2022/09/15 21:42:32;;;;;;;10.73;2.83;;;;;;;21.58;100.00;101364.31;6102909;23;20426;-90
2022/09/15 21:45:00;;;;;;;16.17;2.57;;;;;;;21.48;100.00;101359.44;6079173;23;20925;-90
2022/09/15 21:47:33;;;;;;;8.40;2.03;;;;;;;21.54;100.00;101372.34;6079834;23;20434;-91
2022/09/15 21:50:02;;;;;;;17.67;2.30;;;;;;;21.44;100.00;101355.47;6126457;23;20441;-91
2022/09/15 21:52:34;;;;;;;9.20;2.13;;;;;;;21.48;100.00;101359.44;6079814;23;20390;-91
2022/09/15 21:55:04;;;;;;;10.60;2.60;;;;;;;21.44;100.00;101357.41;6127213;23;20411;-91
2022/09/15 21:57:48;;;;;;;11.47;2.47;;;;;;;21.40;100.00;101354.28;6078858;23;20501;-92
2022/09/15 22:00:22;;;;;;;13.30;2.60;;;;;;;21.31;100.00;101351.06;6079559;23;20701;-91
2022/09/15 22:02:50;;;;;;;7.47;2.13;;;;;;;21.29;100.00;101350.47;6079032;23;20450;-91
2022/09/15 22:05:20;;;;;;;7.20;2.47;;;;;;;21.30;100.00;101354.09;6079329;23;20474;-92
2022/09/15 22:07:52;;;;;;;7.70;2.90;;;;;;;21.31;100.00;101353.84;6079979;23;20446;-91
2022/09/15 22:10:39;;;;;;;9.60;3.00;;;;;;;21.28;100.00;101351.56;6105563;23;20399;-91
2022/09/15 22:13:14;;;;;;;11.07;2.70;;;;;;;21.19;100.00;101335.50;6079245;23;20473;-91
2022/09/15 22:15:43;;;;;;;6.73;2.43;;;;;;;21.11;100.00;101339.53;6078884;23;20917;-91
2022/09/15 22:18:12;;;;;;;11.60;2.13;;;;;;;21.12;100.00;101349.56;6080159;23;20730;-92
2022/09/15 22:20:42;;;;;;;6.47;1.97;;;;;;;21.09;100.00;101349.22;6078171;23;20481;-91
2022/09/15 22:23:12;;;;;;;10.43;2.00;;;;;;;20.98;100.00;101335.09;6079603;23;20493;-91
2022/09/15 22:25:40;;;;;;;10.83;2.90;;;;;;;20.96;100.00;101339.25;6079051;23;20410;-91
2022/09/15 22:28:08;;;;;;;7.17;2.83;;;;;;;20.90;100.00;101335.53;6055129;23;20414;-91
2022/09/15 22:30:38;;;;;;;9.07;2.40;;;;;;;20.92;100.00;101340.84;6079469;23;20394;-91
2022/09/15 22:33:09;;;;;;;18.20;3.50;;;;;;;20.93;100.00;101339.75;6078862;23;20897;-91
2022/09/15 22:35:39;;;;;;;15.27;2.90;;;;;;;20.86;100.00;101342.66;6102566;23;20470;-91
2022/09/15 22:38:09;;;;;;;13.33;2.97;;;;;;;20.78;100.00;101337.50;6103271;23;20703;-91
2022/09/15 22:40:36;;;;;;;12.70;2.20;;;;;;;20.71;100.00;101333.19;6105162;23;20415;-91
2022/09/15 22:43:07;;;;;;;12.80;2.73;;;;;;;20.69;100.00;101336.19;6156217;23;20416;-91
2022/09/15 22:45:37;;;;;;;6.77;2.03;;;;;;;20.68;100.00;101340.91;6131328;23;20401;-91